createdAt,value
2022-12-05T00:01:20.888Z,91.88
2022-12-05T00:03:52.441Z,91.14
2022-12-05T00:06:20.957Z,91.91
2022-12-05T00:08:49.700Z,93.65
2022-12-05T00:11:19.387Z,92.97
2022-12-05T00:13:48.977Z,92.11
2022-12-05T00:16:19.270Z,92.00
2022-12-05T00:18:47.613Z,92.09
2022-12-05T00:21:18.740Z,92.03
2022-12-05T00:23:46.640Z,91.77
2022-12-05T00:26:15.165Z,93.12
2022-12-05T00:28:42.963Z,93.20
2022-12-05T00:31:12.784Z,92.99
2022-12-05T00:33:40.981Z,93.57
2022-12-05T00:36:11.039Z,93.39
2022-12-05T00:38:41.472Z,94.30
2022-12-05T00:41:10.807Z,93.76
2022-12-05T00:43:39.270Z,94.86
2022-12-05T00:46:08.991Z,94.16
2022-12-05T00:48:37.472Z,94.94
2022-12-05T00:51:07.137Z,93.96
2022-12-05T00:53:35.528Z,94.99
2022-12-05T00:56:06.300Z,95.01
2022-12-05T00:58:34.166Z,95.12
2022-12-05T01:01:07.486Z,95.44
2022-12-05T01:03:35.426Z,94.17
2022-12-05T01:06:03.545Z,97.04
2022-12-05T01:08:31.363Z,94.61
2022-12-05T01:10:59.762Z,94.53
2022-12-05T01:13:29.909Z,93.13
2022-12-05T01:15:58.419Z,94.61
2022-12-05T01:18:27.124Z,94.37
2022-12-05T01:20:55.485Z,94.43
2022-12-05T01:23:23.885Z,94.69
2022-12-05T01:25:53.952Z,95.35
2022-12-05T01:28:21.919Z,95.28
2022-12-05T01:30:51.755Z,94.99
2022-12-05T01:33:19.683Z,94.27
2022-12-05T01:35:47.624Z,96.04
2022-12-05T01:38:16.687Z,96.31
2022-12-05T01:40:44.588Z,95.08
2022-12-05T01:43:17.273Z,96.97
2022-12-05T01:45:47.255Z,95.60
2022-12-05T01:48:20.083Z,96.73
2022-12-05T01:50:49.797Z,97.37
2022-12-05T01:53:18.839Z,97.16
2022-12-05T01:55:48.303Z,95.85
2022-12-05T01:58:17.096Z,96.22
2022-12-05T02:00:45.766Z,96.01
2022-12-05T02:03:20.379Z,97.29
2022-12-05T02:05:52.097Z,97.71
2022-12-05T02:08:20.612Z,98.00
2022-12-05T02:10:51.704Z,97.07
2022-12-05T02:13:46.315Z,98.00
2022-12-05T02:16:24.362Z,97.26
2022-12-05T02:19:05.743Z,96.63
2022-12-05T02:21:53.333Z,97.11
2022-12-05T02:24:40.099Z,96.27
2022-12-05T02:27:22.658Z,96.65
2022-12-05T02:30:07.141Z,96.02
2022-12-05T02:32:48.683Z,99.76
2022-12-05T02:35:27.256Z,99.86
2022-12-05T02:38:05.209Z,97.86
2022-12-05T02:40:41.452Z,97.79
2022-12-05T02:43:14.941Z,98.84
2022-12-05T02:45:45.179Z,97.92
2022-12-05T02:48:16.309Z,98.34
2022-12-05T02:50:45.330Z,97.47
2022-12-05T02:53:15.536Z,97.48
2022-12-05T02:55:45.276Z,96.95
2022-12-05T02:58:20.268Z,99.20
2022-12-05T03:00:52.011Z,99.08
2022-12-05T03:03:23.345Z,98.25
2022-12-05T03:06:00.980Z,98.70
2022-12-05T03:08:33.599Z,98.71
2022-12-05T03:11:04.400Z,98.54
2022-12-05T03:13:40.052Z,97.86
2022-12-05T03:16:15.184Z,97.03
2022-12-05T03:18:48.294Z,97.31
2022-12-05T03:21:23.464Z,97.15
2022-12-05T03:23:54.212Z,97.66
2022-12-05T03:26:37.364Z,97.00
2022-12-05T03:29:21.475Z,96.89
2022-12-05T03:31:58.676Z,96.39
2022-12-05T03:34:35.915Z,96.56
2022-12-05T03:37:08.921Z,97.05
2022-12-05T03:39:40.256Z,95.14
2022-12-05T03:42:13.375Z,97.94
2022-12-05T03:44:51.690Z,97.26
2022-12-05T03:47:25.819Z,97.50
2022-12-05T03:50:00.694Z,97.02
2022-12-05T03:52:45.756Z,97.17
2022-12-05T03:55:22.597Z,97.22
2022-12-05T03:57:57.002Z,96.35
2022-12-05T04:00:26.061Z,96.11
2022-12-05T04:03:00.703Z,96.19
2022-12-05T04:05:33.896Z,96.87
2022-12-05T04:08:05.564Z,95.98
2022-12-05T04:10:48.673Z,96.60
2022-12-05T04:13:21.007Z,95.80
2022-12-05T04:16:11.802Z,97.53
2022-12-05T04:18:48.549Z,96.72
2022-12-05T04:21:36.320Z,97.09
2022-12-05T04:24:21.684Z,97.42
2022-12-05T04:26:59.444Z,97.82
2022-12-05T04:29:32.870Z,97.99
2022-12-05T04:32:08.324Z,98.11
2022-12-05T04:34:39.584Z,97.51
2022-12-05T04:37:13.802Z,96.96
2022-12-05T04:39:47.591Z,97.12
2022-12-05T04:42:20.211Z,97.15
2022-12-05T04:44:50.950Z,95.71
2022-12-05T04:47:21.937Z,96.41
2022-12-05T04:49:53.957Z,96.30
2022-12-05T04:52:23.460Z,96.86
2022-12-05T04:54:58.615Z,95.67
2022-12-05T04:57:30.369Z,96.72
2022-12-05T04:59:58.520Z,96.74
2022-12-05T05:02:33.901Z,95.98
2022-12-05T05:05:09.529Z,96.50
2022-12-05T05:07:46.131Z,96.86
2022-12-05T05:10:19.462Z,96.42
2022-12-05T05:12:47.439Z,95.95
2022-12-05T05:15:15.242Z,96.44
2022-12-05T05:17:43.041Z,96.36
2022-12-05T05:20:24.688Z,95.45
2022-12-05T05:22:53.123Z,96.31
2022-12-05T05:25:21.731Z,96.27
2022-12-05T05:27:51.274Z,96.76
2022-12-05T05:30:19.363Z,97.35
2022-12-05T05:32:47.609Z,96.46
2022-12-05T05:35:17.120Z,96.77
2022-12-05T05:37:44.861Z,98.32
2022-12-05T05:40:14.467Z,98.11
2022-12-05T05:42:46.073Z,98.08
2022-12-05T05:45:15.587Z,99.22
2022-12-05T05:47:43.968Z,98.38
2022-12-05T05:50:17.891Z,99.11
2022-12-05T05:52:48.676Z,96.56
2022-12-05T05:55:16.442Z,97.77
2022-12-05T05:57:44.126Z,97.76
2022-12-05T06:00:12.993Z,97.26
2022-12-05T06:02:40.799Z,97.50
2022-12-05T06:05:09.483Z,96.89
2022-12-05T06:07:37.272Z,97.41
2022-12-05T06:10:08.814Z,95.69
2022-12-05T06:12:36.562Z,97.10
2022-12-05T06:15:05.032Z,97.95
2022-12-05T06:17:32.746Z,96.92
2022-12-05T06:20:00.858Z,96.80
2022-12-05T06:22:28.833Z,96.55
2022-12-05T06:24:56.576Z,96.50
2022-12-05T06:27:26.276Z,97.06
2022-12-05T06:29:54.018Z,96.37
2022-12-05T06:32:21.813Z,97.02
2022-12-05T06:34:49.533Z,96.02
2022-12-05T06:37:17.365Z,96.77
2022-12-05T06:39:45.113Z,96.16
2022-12-05T06:42:12.930Z,94.89
2022-12-05T06:44:42.027Z,96.06
2022-12-05T06:47:09.788Z,96.01
2022-12-05T06:49:38.337Z,96.97
2022-12-05T06:52:06.274Z,96.31
2022-12-05T06:54:34.188Z,96.39
2022-12-05T06:57:01.926Z,95.66
2022-12-05T06:59:29.686Z,96.18
2022-12-05T07:01:57.874Z,95.41
2022-12-05T07:04:25.783Z,95.96
2022-12-05T07:06:54.784Z,95.07
2022-12-05T07:09:45.606Z,94.04
2022-12-05T07:12:14.222Z,93.67
2022-12-05T07:14:50.031Z,93.99
2022-12-05T07:17:20.512Z,93.88
2022-12-05T07:19:49.647Z,95.62
2022-12-05T07:22:17.545Z,94.65
2022-12-05T07:24:45.251Z,95.13
2022-12-05T07:27:13.369Z,94.45
2022-12-05T07:29:41.079Z,93.25
2022-12-05T07:32:09.627Z,94.25
2022-12-05T07:34:39.932Z,93.76
2022-12-05T07:37:08.189Z,93.85
2022-12-05T07:39:35.929Z,93.65
2022-12-05T07:42:03.639Z,94.12
2022-12-05T07:44:31.743Z,93.97
2022-12-05T07:46:59.994Z,94.36
2022-12-05T07:49:27.942Z,93.81
2022-12-05T07:51:57.074Z,93.99
2022-12-05T07:54:24.919Z,93.55
2022-12-05T07:56:52.706Z,94.01
2022-12-05T07:59:20.503Z,93.56
2022-12-05T08:01:48.493Z,91.61
2022-12-05T08:04:16.332Z,90.80
2022-12-05T08:06:44.643Z,91.04
2022-12-05T08:09:14.331Z,93.02
2022-12-05T08:11:42.068Z,92.64
2022-12-05T08:14:10.026Z,93.20
2022-12-05T08:16:37.884Z,93.04
2022-12-05T08:19:08.036Z,91.85
2022-12-05T08:21:36.071Z,92.27
2022-12-05T08:24:05.901Z,92.48
2022-12-05T08:26:36.971Z,93.64
2022-12-05T08:29:07.293Z,93.31
2022-12-05T08:31:37.232Z,93.47
2022-12-05T08:34:05.001Z,92.47
2022-12-05T08:36:33.504Z,92.12
2022-12-05T08:39:03.203Z,92.89
2022-12-05T08:41:31.283Z,90.58
2022-12-05T08:44:03.474Z,90.98
2022-12-05T08:46:31.583Z,89.94
2022-12-05T08:48:59.495Z,90.57
2022-12-05T08:51:27.363Z,90.83
2022-12-05T08:53:56.260Z,91.13
2022-12-05T08:56:27.089Z,91.88
2022-12-05T08:59:01.264Z,92.26
2022-12-05T09:01:36.924Z,93.14
2022-12-05T09:04:06.058Z,91.96
2022-12-05T09:06:34.764Z,92.96
2022-12-05T09:09:05.515Z,92.48
2022-12-05T09:11:36.468Z,92.50
2022-12-05T09:14:05.479Z,92.16
2022-12-05T09:16:38.830Z,92.18
2022-12-05T09:19:11.928Z,93.16
2022-12-05T09:21:40.668Z,93.37
2022-12-05T09:24:08.525Z,92.95
2022-12-05T09:26:36.309Z,91.85
2022-12-05T09:29:04.561Z,91.47
2022-12-05T09:31:34.073Z,91.78
2022-12-05T09:34:01.982Z,92.11
2022-12-05T09:36:31.501Z,92.02
2022-12-05T09:39:02.336Z,91.74
2022-12-05T09:42:08.654Z,90.75
2022-12-05T09:44:45.324Z,90.94
2022-12-05T09:47:24.705Z,92.37
2022-12-05T09:49:58.520Z,91.41
2022-12-05T09:52:30.638Z,92.07
2022-12-05T09:55:04.057Z,92.29
2022-12-05T09:57:37.778Z,92.40
2022-12-05T10:00:08.060Z,91.61
2022-12-05T10:02:48.056Z,92.53
2022-12-05T10:05:20.865Z,89.87
2022-12-05T10:08:00.470Z,89.99
2022-12-05T10:10:41.081Z,90.95
2022-12-05T10:13:39.222Z,90.04
2022-12-05T10:16:12.152Z,92.02
2022-12-05T10:18:45.225Z,90.62
2022-12-05T10:21:19.834Z,91.79
2022-12-05T10:23:58.100Z,91.45
2022-12-05T10:26:30.197Z,91.78
2022-12-05T10:29:03.500Z,90.53
2022-12-05T10:31:34.647Z,91.02
2022-12-05T10:34:07.394Z,90.93
2022-12-05T10:36:35.520Z,90.68
2022-12-05T10:39:08.342Z,92.12
2022-12-05T10:41:39.073Z,91.23
2022-12-05T10:44:06.972Z,89.73
2022-12-05T10:46:34.802Z,89.73
2022-12-05T10:49:04.049Z,88.07
2022-12-05T10:51:37.209Z,89.45
2022-12-05T10:54:17.529Z,87.89
2022-12-05T10:56:46.676Z,88.81
2022-12-05T10:59:16.719Z,89.44
2022-12-05T11:01:48.505Z,88.64
2022-12-05T11:04:27.743Z,92.60
2022-12-05T11:06:59.649Z,92.86
2022-12-05T11:09:29.704Z,93.84
2022-12-05T11:12:15.721Z,93.49
2022-12-05T11:14:56.582Z,93.78
2022-12-05T11:17:27.946Z,92.69
2022-12-05T11:19:58.446Z,92.63
2022-12-05T11:22:33.201Z,92.19
2022-12-05T11:25:01.264Z,92.98
2022-12-05T11:27:31.861Z,92.90
2022-12-05T11:30:03.044Z,92.55
2022-12-05T11:32:32.866Z,91.58
2022-12-05T11:35:19.228Z,91.20
2022-12-05T11:37:51.920Z,91.23
2022-12-05T11:40:29.393Z,89.87
2022-12-05T11:43:17.358Z,91.05
2022-12-05T11:45:55.100Z,89.67
2022-12-05T11:48:47.442Z,89.60
2022-12-05T11:51:30.231Z,89.66
2022-12-05T11:55:02.856Z,88.73
2022-12-05T11:57:23.485Z,86.95
2022-12-05T12:00:08.899Z,87.67
2022-12-05T12:03:01.165Z,87.46
2022-12-05T12:05:38.163Z,87.52
2022-12-05T12:08:20.029Z,87.33
2022-12-05T12:10:52.508Z,86.43
2022-12-05T12:13:35.944Z,84.85
2022-12-05T12:16:15.665Z,85.28
2022-12-05T12:19:03.837Z,86.89
2022-12-05T12:21:48.336Z,87.24
2022-12-05T12:24:26.884Z,85.61
2022-12-05T12:27:06.272Z,86.92
2022-12-05T12:29:49.512Z,86.72
2022-12-05T12:32:28.177Z,89.59
2022-12-05T12:35:17.843Z,89.63
2022-12-05T12:37:53.360Z,89.65
2022-12-05T12:40:27.875Z,89.26
2022-12-05T12:43:07.471Z,89.60
2022-12-05T12:45:48.066Z,88.66
2022-12-05T12:48:40.624Z,88.47
2022-12-05T12:51:14.688Z,90.89
2022-12-05T12:53:57.800Z,90.16
2022-12-05T12:56:38.738Z,90.90
2022-12-05T12:59:20.321Z,90.24
2022-12-05T13:01:54.881Z,91.46
2022-12-05T13:04:26.169Z,92.99
2022-12-05T13:06:57.799Z,91.99
2022-12-05T13:09:31.427Z,90.87
2022-12-05T13:12:06.045Z,89.91
2022-12-05T13:14:38.146Z,91.26
2022-12-05T13:17:08.678Z,89.73
2022-12-05T13:19:44.471Z,90.75
2022-12-05T13:22:13.526Z,89.95
2022-12-05T13:24:42.508Z,88.24
2022-12-05T13:27:18.706Z,88.84
2022-12-05T13:29:51.984Z,89.95
2022-12-05T13:32:30.725Z,89.73
2022-12-05T13:35:00.790Z,89.12
2022-12-05T13:37:48.126Z,88.91
2022-12-05T13:41:00.187Z,88.58
2022-12-05T13:43:30.720Z,89.92
2022-12-05T13:46:07.243Z,88.75
2022-12-05T13:48:38.852Z,87.73
2022-12-05T13:51:09.624Z,89.24
2022-12-05T13:53:40.440Z,89.15
2022-12-05T13:56:26.807Z,89.37
2022-12-05T13:58:57.322Z,88.79
2022-12-05T14:01:52.226Z,88.81
2022-12-05T14:04:48.127Z,88.90
2022-12-05T14:07:43.262Z,89.59
2022-12-05T14:10:13.340Z,87.66
2022-12-05T14:12:52.904Z,89.23
2022-12-05T14:15:32.832Z,88.28
2022-12-05T14:18:11.071Z,86.40
2022-12-05T14:21:03.885Z,86.80
2022-12-05T14:23:51.681Z,87.70
2022-12-05T14:26:33.824Z,87.61
2022-12-05T14:29:15.432Z,86.34
2022-12-05T14:31:58.435Z,87.55
2022-12-05T14:34:31.216Z,87.73
2022-12-05T14:37:02.057Z,88.00
2022-12-05T14:39:39.316Z,89.62
2022-12-05T14:42:23.900Z,88.62
2022-12-05T14:44:54.892Z,88.75
2022-12-05T14:47:26.909Z,87.29
2022-12-05T14:50:02.006Z,87.22
2022-12-05T14:52:33.974Z,87.03
2022-12-05T14:55:11.945Z,86.74
2022-12-05T14:57:48.777Z,87.66
2022-12-05T15:00:23.208Z,87.60
2022-12-05T15:02:55.527Z,87.28
2022-12-05T15:05:27.447Z,86.85
2022-12-05T15:07:57.413Z,87.13
2022-12-05T15:10:30.570Z,88.28
2022-12-05T15:13:00.564Z,87.10
2022-12-05T15:15:37.071Z,87.80
2022-12-05T15:18:24.258Z,87.12
2022-12-05T15:20:57.158Z,87.48
2022-12-05T15:23:45.449Z,87.31
2022-12-05T15:29:18.372Z,84.46
2022-12-05T15:31:48.151Z,84.27
2022-12-05T15:34:22.226Z,85.53
2022-12-05T15:36:55.544Z,84.55
2022-12-05T15:39:26.188Z,86.65
2022-12-05T15:41:56.800Z,87.08
2022-12-05T15:44:34.269Z,86.29
2022-12-05T15:47:05.434Z,85.98
2022-12-05T15:49:33.187Z,87.79
2022-12-05T15:52:14.369Z,88.22
2022-12-05T15:54:44.234Z,88.14
2022-12-05T15:57:18.300Z,89.96
2022-12-05T15:59:49.187Z,89.56
2022-12-05T16:02:23.923Z,90.15
2022-12-05T16:04:54.921Z,89.85
2022-12-05T16:07:24.483Z,90.84
2022-12-05T16:09:52.259Z,88.37
2022-12-05T16:12:26.255Z,87.98
2022-12-05T16:14:59.961Z,88.86
2022-12-05T16:17:30.848Z,88.66
2022-12-05T16:20:12.428Z,89.21
2022-12-05T16:22:45.907Z,89.37
2022-12-05T16:25:15.329Z,88.34
2022-12-05T16:27:56.665Z,87.90
2022-12-05T16:30:25.359Z,86.84
2022-12-05T16:33:01.240Z,88.77
2022-12-05T16:35:31.462Z,89.76
2022-12-05T16:38:08.431Z,88.11
2022-12-05T16:40:36.170Z,87.70
2022-12-05T16:43:07.091Z,87.04
2022-12-05T16:45:42.278Z,87.85
2022-12-05T16:48:18.033Z,88.53
2022-12-05T16:50:45.845Z,89.16
2022-12-05T16:53:19.439Z,89.45
2022-12-05T16:55:47.082Z,90.42
2022-12-05T16:58:23.261Z,89.79
2022-12-05T17:00:52.061Z,90.36
2022-12-05T17:03:34.599Z,87.53
2022-12-05T17:06:03.596Z,89.41
2022-12-05T17:08:31.511Z,89.83
2022-12-05T17:11:01.783Z,88.56
2022-12-05T17:13:32.785Z,88.38
2022-12-05T17:16:00.636Z,88.34
2022-12-05T17:18:31.895Z,90.01
2022-12-05T17:21:03.059Z,88.79
2022-12-05T17:23:30.750Z,88.60
2022-12-05T17:26:00.176Z,90.61
2022-12-05T17:28:27.939Z,88.42
2022-12-05T17:30:57.204Z,89.05
2022-12-05T17:33:25.867Z,88.58
2022-12-05T17:35:53.595Z,88.36
2022-12-05T17:38:22.069Z,89.11
2022-12-05T17:40:49.985Z,88.22
2022-12-05T17:43:24.570Z,85.51
2022-12-05T17:45:54.530Z,87.01
2022-12-05T17:48:23.714Z,86.03
2022-12-05T17:50:52.045Z,86.20
2022-12-05T17:53:21.992Z,85.99
2022-12-05T17:55:49.887Z,86.07
2022-12-05T17:58:18.591Z,85.51
2022-12-05T18:00:47.592Z,86.23
2022-12-05T18:03:17.898Z,86.55
2022-12-05T18:05:47.937Z,86.34
2022-12-05T18:08:17.259Z,85.62
2022-12-05T18:10:46.537Z,83.76
2022-12-05T18:13:14.707Z,84.46
2022-12-05T18:15:43.567Z,84.15
2022-12-05T18:18:15.464Z,84.64
2022-12-05T18:20:43.286Z,84.21
2022-12-05T18:23:12.799Z,84.40
2022-12-05T18:25:40.962Z,84.13
2022-12-05T18:28:08.753Z,84.75
2022-12-05T18:30:36.629Z,84.79
2022-12-05T18:33:04.412Z,84.54
2022-12-05T18:35:41.477Z,83.13
2022-12-05T18:38:10.652Z,82.79
2022-12-05T18:40:39.837Z,83.79
2022-12-05T18:43:07.568Z,83.89
2022-12-05T18:45:35.418Z,83.65
2022-12-05T18:48:37.787Z,83.33
2022-12-05T18:50:51.301Z,83.75
2022-12-05T18:53:19.129Z,84.49
2022-12-05T18:58:36.391Z,84.91
2022-12-05T19:01:08.005Z,85.29
2022-12-05T19:03:36.300Z,85.06
2022-12-05T19:06:12.619Z,83.60
2022-12-05T19:08:40.541Z,83.20
2022-12-05T19:11:09.600Z,82.26
2022-12-05T19:13:37.411Z,82.95
2022-12-05T19:16:06.427Z,83.78
2022-12-05T19:18:34.502Z,83.16
2022-12-05T19:21:02.417Z,83.98
2022-12-05T19:23:30.289Z,84.74
2022-12-05T19:26:01.324Z,84.52
2022-12-05T19:28:30.516Z,83.70
2022-12-05T19:31:02.372Z,84.09
2022-12-05T19:33:34.213Z,84.93
2022-12-05T19:36:07.203Z,84.77
2022-12-05T19:38:36.086Z,84.63
2022-12-05T19:41:04.863Z,85.61
2022-12-05T19:43:35.023Z,86.14
2022-12-05T19:46:04.844Z,85.35
2022-12-05T19:48:33.163Z,84.33
2022-12-05T19:51:02.576Z,84.27
2022-12-05T19:53:32.224Z,84.89
2022-12-05T19:56:04.527Z,83.25
2022-12-05T19:58:34.045Z,83.78
2022-12-05T20:01:09.022Z,84.62
2022-12-05T20:03:37.195Z,84.00
2022-12-05T20:06:06.203Z,82.58
2022-12-05T20:08:35.643Z,83.34
2022-12-05T20:11:08.262Z,82.53
2022-12-05T20:13:46.487Z,82.25
2022-12-05T20:16:16.980Z,83.28
2022-12-05T20:18:44.940Z,83.30
2022-12-05T20:21:15.196Z,82.17
2022-12-05T20:23:43.028Z,81.24
2022-12-05T20:26:12.575Z,81.77
2022-12-05T20:28:42.131Z,81.79
2022-12-05T20:31:12.673Z,81.69
2022-12-05T20:33:40.928Z,83.39
2022-12-05T20:36:10.997Z,83.57
2022-12-05T20:38:38.938Z,86.22
2022-12-05T20:41:08.567Z,84.65
2022-12-05T20:43:36.444Z,83.51
2022-12-05T20:46:07.325Z,83.74
2022-12-05T20:48:35.860Z,83.51
2022-12-05T20:51:07.698Z,84.71
2022-12-05T20:53:36.702Z,85.14
2022-12-05T20:56:05.856Z,86.35
2022-12-05T20:58:33.815Z,86.06
2022-12-05T21:01:02.594Z,85.19
2022-12-05T21:03:31.861Z,85.32
2022-12-05T21:05:59.701Z,85.02
2022-12-05T21:08:27.503Z,84.09
2022-12-05T21:10:55.255Z,84.40
2022-12-05T21:13:22.944Z,85.62
2022-12-05T21:15:50.749Z,85.67
2022-12-05T21:18:18.492Z,85.05
2022-12-05T21:20:57.090Z,84.85
2022-12-05T21:23:24.783Z,83.58
2022-12-05T21:25:52.870Z,86.29
2022-12-05T21:28:20.984Z,85.08
2022-12-05T21:30:48.819Z,84.35
2022-12-05T21:33:16.608Z,85.76
2022-12-05T21:35:44.293Z,85.15
2022-12-05T21:38:13.470Z,83.90
2022-12-05T21:40:43.610Z,84.76
2022-12-05T21:43:12.501Z,84.71
2022-12-05T21:45:44.263Z,84.77
2022-12-05T21:48:13.507Z,82.75
2022-12-05T21:50:43.247Z,83.08
2022-12-05T21:53:11.121Z,82.81
2022-12-05T21:55:40.179Z,84.80
2022-12-05T21:58:07.945Z,84.03
2022-12-05T22:00:35.745Z,83.34
2022-12-05T22:03:03.753Z,83.96
2022-12-05T22:05:33.182Z,84.76
2022-12-05T22:08:06.022Z,84.77
2022-12-05T22:10:34.596Z,86.57
2022-12-05T22:13:03.953Z,86.10
2022-12-05T22:15:32.048Z,84.07
2022-12-05T22:17:59.883Z,83.91
2022-12-05T22:20:27.719Z,83.53
2022-12-05T22:22:55.500Z,84.00
2022-12-05T22:25:23.331Z,83.66
2022-12-05T22:27:51.024Z,84.43
2022-12-05T22:30:20.315Z,82.65
2022-12-05T22:32:48.122Z,82.82
2022-12-05T22:35:15.975Z,84.09
2022-12-05T22:37:43.657Z,84.81
2022-12-05T22:40:12.198Z,84.39
2022-12-05T22:42:39.896Z,84.35
2022-12-05T22:45:08.893Z,83.85
2022-12-05T22:47:37.959Z,84.08
2022-12-05T22:50:06.354Z,83.30
2022-12-05T22:52:34.080Z,83.43
2022-12-05T22:55:01.878Z,83.72
2022-12-05T22:57:29.582Z,87.17
2022-12-05T22:59:57.633Z,85.15
2022-12-05T23:02:25.733Z,86.58
2022-12-05T23:04:55.100Z,86.23
2022-12-05T23:07:22.953Z,85.77
2022-12-05T23:09:50.864Z,85.63
2022-12-05T23:12:18.923Z,84.91
2022-12-05T23:14:46.784Z,85.73
2022-12-05T23:17:14.683Z,86.77
2022-12-05T23:19:42.599Z,88.00
2022-12-05T23:22:11.936Z,87.04
2022-12-05T23:24:39.869Z,85.78
2022-12-05T23:27:07.804Z,87.04
2022-12-05T23:29:35.698Z,87.77
2022-12-05T23:32:03.742Z,87.00
2022-12-05T23:34:31.662Z,88.47
2022-12-05T23:36:59.528Z,88.53
2022-12-05T23:39:28.821Z,88.15
2022-12-05T23:41:56.847Z,88.85
2022-12-05T23:44:24.808Z,88.05
2022-12-05T23:46:52.832Z,88.91
2022-12-05T23:49:20.797Z,87.21
2022-12-05T23:51:50.097Z,87.32
2022-12-05T23:54:18.088Z,85.92
2022-12-05T23:56:47.409Z,88.61
2022-12-05T23:59:15.402Z,88.10
